Time,TemperatureF,DewpointF,PressureIn,WindDirection,WindDirectionDegrees,WindSpeedMPH,WindSpeedGustMPH,Humidity,HourlyPrecipIn,Conditions,Clouds,dailyrainin,SoftwareType,DateUTC
2013-01-08 19:02:00,33.5,24.8,30.40,South,180,0.0,0.0,70,2.59,,,0.01,WUHU216HW,2013-01-09 00:02:00,
2013-01-08 19:12:00,33.3,24.6,30.41,South,180,0.0,0.0,70,2.59,,,0.01,WUHU216HW,2013-01-09 00:12:00,
2013-01-08 19:22:00,33.1,24.4,30.40,South,180,0.0,0.0,70,2.59,,,0.01,WUHU216HW,2013-01-09 00:22:00,
2013-01-08 19:32:00,33.1,24.7,30.40,SSE,158,0.0,0.4,71,2.59,,,0.01,WUHU216HW,2013-01-09 00:32:00,
2013-01-08 19:42:00,33.3,25.2,30.40,SSE,158,0.0,0.0,72,2.59,,,0.01,WUHU216HW,2013-01-09 00:42:00,
2013-01-08 19:52:00,33.1,25.0,30.41,SSE,158,0.0,0.0,72,2.59,,,0.01,WUHU216HW,2013-01-09 00:52:00,
2013-01-08 20:02:00,33.1,26.3,30.40,WSW,248,0.4,0.4,76,2.59,,,0.02,WUHU216HW,2013-01-09 01:02:00,
2013-01-08 20:12:00,33.5,26.6,30.42,West,270,0.0,0.4,76,2.59,,,0.02,WUHU216HW,2013-01-09 01:12:00,
2013-01-08 20:22:00,33.1,26.3,30.40,West,270,0.0,0.0,76,2.59,,,0.02,WUHU216HW,2013-01-09 01:22:00,
2013-01-08 20:32:00,32.8,26.0,30.40,West,270,0.0,0.0,76,2.59,,,0.02,WUHU216HW,2013-01-09 01:32:00,
2013-01-08 20:42:00,32.4,25.4,30.40,WSW,248,0.0,0.0,75,0.00,,,0.00,WUHU216HW,2013-01-09 01:42:00,
2013-01-08 20:52:00,32.0,25.0,30.40,WSW,248,0.0,0.0,75,0.00,,,0.00,WUHU216HW,2013-01-09 01:52:00,
2013-01-08 21:03:00,31.9,24.8,30.40,SSW,203,0.0,0.2,75,0.00,,,0.00,WUHU216HW,2013-01-09 02:03:00,
2013-01-08 21:13:00,31.7,25.0,30.40,SSW,203,0.0,0.0,76,2.59,,,0.03,WUHU216HW,2013-01-09 02:13:00,
2013-01-08 21:23:00,31.7,25.0,30.40,North,0,0.0,0.4,76,2.59,,,0.03,WUHU216HW,2013-01-09 02:23:00,
2013-01-08 21:33:00,31.3,24.7,30.40,SSE,158,0.2,0.4,76,2.59,,,0.03,WUHU216HW,2013-01-09 02:33:00,
2013-01-08 21:43:00,31.0,24.6,30.40,WSW,248,0.0,0.0,77,0.00,,,0.00,WUHU216HW,2013-01-09 02:43:00,
2013-01-08 21:53:00,30.6,24.2,30.41,WSW,248,0.0,0.0,77,0.00,,,0.00,WUHU216HW,2013-01-09 02:53:00,
2013-01-08 22:03:00,30.4,24.0,30.40,WSW,248,0.0,0.0,77,0.00,,,0.00,WUHU216HW,2013-01-09 03:03:00,
2013-01-08 22:13:00,30.1,24.0,30.40,WSW,248,0.0,0.0,78,2.59,,,0.04,WUHU216HW,2013-01-09 03:13:00,
2013-01-08 22:23:00,29.9,23.5,30.41,SSW,203,0.0,0.0,77,2.59,,,0.04,WUHU216HW,2013-01-09 03:23:00,
2013-01-08 22:33:00,29.3,23.3,30.42,SSW,203,0.0,0.7,78,2.59,,,0.04,WUHU216HW,2013-01-09 03:33:00,
2013-01-08 22:43:00,29.2,23.1,30.42,SSW,203,0.0,0.0,78,0.00,,,0.00,WUHU216HW,2013-01-09 03:43:00,
2013-01-08 22:53:00,28.8,22.8,30.42,SSE,158,0.0,0.4,78,2.59,,,0.04,WUHU216HW,2013-01-09 03:53:00,
2013-01-08 23:03:00,28.6,22.6,30.41,South,180,0.0,0.7,78,0.00,,,0.00,WUHU216HW,2013-01-09 04:03:00,
2013-01-08 23:13:00,28.4,22.4,30.42,South,180,0.0,0.0,78,2.59,,,0.05,WUHU216HW,2013-01-09 04:13:00,
2013-01-08 23:23:00,28.4,22.8,30.42,South,180,0.0,0.9,79,2.59,,,0.05,WUHU216HW,2013-01-09 04:23:00,
2013-01-08 23:33:00,28.6,23.2,30.42,SSW,203,0.0,0.0,80,2.59,,,0.05,WUHU216HW,2013-01-09 04:33:00,
2013-01-08 23:43:00,28.4,23.3,30.42,NW,315,0.0,0.2,81,2.59,,,0.05,WUHU216HW,2013-01-09 04:43:00,
2013-01-08 23:53:00,28.1,22.7,30.41,South,180,0.2,0.7,80,2.59,,,0.05,WUHU216HW,2013-01-09 04:53:00,